createdAt,value
2022-08-29T00:01:30.892Z,17.50
2022-08-29T00:03:59.065Z,17.50
2022-08-29T00:06:26.572Z,17.50
2022-08-29T00:08:54.112Z,17.40
2022-08-29T00:11:22.015Z,17.40
2022-08-29T00:13:50.141Z,17.40
2022-08-29T00:16:18.464Z,17.40
2022-08-29T00:18:46.099Z,17.40
2022-08-29T00:21:13.824Z,17.40
2022-08-29T00:23:41.277Z,17.40
2022-08-29T00:26:08.852Z,17.40
2022-08-29T00:28:36.285Z,17.40
2022-08-29T00:31:04.453Z,17.40
2022-08-29T00:33:31.928Z,17.30
2022-08-29T00:35:59.402Z,17.30
2022-08-29T00:38:27.903Z,17.30
2022-08-29T00:40:58.010Z,17.30
2022-08-29T00:43:29.841Z,17.20
2022-08-29T00:46:10.581Z,17.20
2022-08-29T00:48:39.942Z,17.20
2022-08-29T00:51:15.705Z,17.30
2022-08-29T00:53:47.940Z,17.20
2022-08-29T00:56:16.657Z,17.20
2022-08-29T00:59:12.432Z,17.20
2022-08-29T01:01:40.477Z,17.20
2022-08-29T01:04:09.822Z,17.20
2022-08-29T01:06:43.823Z,17.10
2022-08-29T01:09:11.962Z,17.20
2022-08-29T01:11:58.387Z,17.20
2022-08-29T01:14:27.586Z,17.20
2022-08-29T01:16:58.568Z,17.10
2022-08-29T01:19:34.724Z,17.10
2022-08-29T01:22:08.019Z,17.10
2022-08-29T01:24:45.903Z,17.10
2022-08-29T01:27:14.336Z,17.10
2022-08-29T01:29:41.971Z,17.10
2022-08-29T01:32:09.440Z,17.10
2022-08-29T01:34:36.866Z,17.10
2022-08-29T01:37:06.462Z,17.10
2022-08-29T01:39:37.651Z,17.10
2022-08-29T01:42:15.739Z,17.00
2022-08-29T01:45:09.855Z,17.00
2022-08-29T01:47:38.936Z,17.10
2022-08-29T01:50:11.961Z,17.00
2022-08-29T01:52:39.515Z,17.00
2022-08-29T01:55:07.239Z,17.00
2022-08-29T01:57:37.762Z,17.00
2022-08-29T02:00:09.213Z,17.00
2022-08-29T02:02:39.315Z,17.00
2022-08-29T02:05:09.709Z,16.90
2022-08-29T02:07:37.230Z,17.00
2022-08-29T02:10:06.904Z,17.00
2022-08-29T02:12:35.411Z,17.00
2022-08-29T02:15:04.115Z,17.00
2022-08-29T02:17:31.586Z,17.00
2022-08-29T02:19:59.212Z,16.90
2022-08-29T02:22:26.665Z,16.90
2022-08-29T02:24:54.126Z,16.90
2022-08-29T02:27:21.556Z,16.90
2022-08-29T02:29:49.015Z,16.90
2022-08-29T02:32:16.487Z,16.90
2022-08-29T02:34:47.741Z,16.90
2022-08-29T02:37:16.501Z,16.90
2022-08-29T02:39:43.964Z,16.80
2022-08-29T02:42:11.411Z,16.80
2022-08-29T02:44:38.799Z,16.80
2022-08-29T02:47:09.015Z,16.80
2022-08-29T02:49:36.644Z,16.80
2022-08-29T02:52:06.725Z,16.80
2022-08-29T02:54:34.867Z,16.70
2022-08-29T02:57:02.357Z,16.70
2022-08-29T02:59:29.796Z,16.70
2022-08-29T03:01:57.365Z,16.70
2022-08-29T03:04:24.872Z,16.70
2022-08-29T03:06:52.392Z,16.70
2022-08-29T03:09:19.834Z,16.70
2022-08-29T03:11:47.393Z,16.70
2022-08-29T03:14:14.828Z,16.70
2022-08-29T03:16:43.437Z,16.60
2022-08-29T03:19:10.880Z,16.60
2022-08-29T03:21:38.268Z,16.60
2022-08-29T03:24:05.991Z,16.60
2022-08-29T03:26:33.765Z,16.80
2022-08-29T03:29:01.393Z,16.70
2022-08-29T03:31:29.010Z,16.70
2022-08-29T03:33:56.680Z,16.70
2022-08-29T03:36:27.046Z,16.70
2022-08-29T03:38:54.655Z,16.70
2022-08-29T03:41:28.900Z,16.70
2022-08-29T03:43:58.851Z,16.60
2022-08-29T03:46:26.957Z,16.60
2022-08-29T03:48:54.453Z,16.60
2022-08-29T03:51:22.677Z,16.50
2022-08-29T03:53:52.274Z,16.50
2022-08-29T03:56:20.399Z,16.50
2022-08-29T03:58:52.779Z,16.50
2022-08-29T04:01:26.910Z,16.40
2022-08-29T04:03:56.271Z,16.40
2022-08-29T04:06:25.433Z,16.40
2022-08-29T04:08:53.273Z,16.40
2022-08-29T04:11:24.025Z,16.40
2022-08-29T04:13:53.057Z,16.40
2022-08-29T04:16:30.721Z,16.30
2022-08-29T04:18:58.984Z,16.20
2022-08-29T04:21:27.337Z,16.20
2022-08-29T04:23:54.946Z,16.20
2022-08-29T04:26:38.112Z,16.30
2022-08-29T04:29:09.024Z,16.30
2022-08-29T04:31:37.907Z,16.30
2022-08-29T04:34:06.826Z,16.30
2022-08-29T04:36:35.591Z,16.30
2022-08-29T04:39:04.178Z,16.30
2022-08-29T04:41:33.129Z,16.30
2022-08-29T04:44:01.716Z,16.20
2022-08-29T04:46:29.428Z,16.20
2022-08-29T04:48:59.516Z,16.20
2022-08-29T04:51:32.067Z,16.20
2022-08-29T04:53:59.673Z,16.20
2022-08-29T04:56:27.197Z,16.20
2022-08-29T04:58:54.616Z,16.10
2022-08-29T05:01:24.216Z,16.20
2022-08-29T05:03:55.417Z,16.20
2022-08-29T05:06:25.603Z,16.10
2022-08-29T05:08:58.765Z,16.10
2022-08-29T05:11:29.920Z,16.10
2022-08-29T05:13:58.953Z,16.10
2022-08-29T05:16:27.041Z,16.20
2022-08-29T05:18:54.487Z,16.10
2022-08-29T05:21:35.189Z,16.10
2022-08-29T05:24:05.633Z,16.10
2022-08-29T05:26:43.399Z,16.10
2022-08-29T05:29:12.402Z,16.10
2022-08-29T05:31:42.084Z,16.10
2022-08-29T05:34:32.079Z,16.10
2022-08-29T05:37:01.034Z,16.10
2022-08-29T05:39:28.506Z,16.20
2022-08-29T05:41:57.389Z,16.10
2022-08-29T05:44:26.229Z,16.20
2022-08-29T05:46:53.653Z,16.20
2022-08-29T05:49:21.365Z,16.20
2022-08-29T05:51:52.482Z,16.20
2022-08-29T05:54:20.038Z,16.20
2022-08-29T05:56:47.523Z,16.30
2022-08-29T05:59:17.134Z,16.30
2022-08-29T06:01:47.155Z,16.30
2022-08-29T06:04:14.870Z,16.30
2022-08-29T06:06:42.581Z,16.30
2022-08-29T06:09:11.869Z,16.30
2022-08-29T06:11:39.472Z,16.40
2022-08-29T06:14:06.934Z,16.40
2022-08-29T06:16:34.431Z,16.50
2022-08-29T06:19:01.923Z,16.40
2022-08-29T06:21:29.395Z,16.50
2022-08-29T06:23:57.337Z,16.50
2022-08-29T06:26:24.824Z,16.50
2022-08-29T06:28:52.498Z,16.50
2022-08-29T06:31:27.237Z,16.60
2022-08-29T06:34:01.338Z,16.60
2022-08-29T06:36:29.803Z,16.70
2022-08-29T06:38:59.124Z,16.70
2022-08-29T06:41:27.244Z,16.70
2022-08-29T06:43:57.885Z,16.70
2022-08-29T06:46:34.527Z,16.70
2022-08-29T06:49:03.832Z,16.70
2022-08-29T06:51:33.353Z,16.80
2022-08-29T06:54:06.995Z,16.80
2022-08-29T06:56:36.628Z,16.90
2022-08-29T06:59:05.947Z,16.90
2022-08-29T07:01:34.318Z,17.00
2022-08-29T07:04:02.266Z,17.00
2022-08-29T07:06:31.255Z,17.10
2022-08-29T07:08:59.410Z,17.10
2022-08-29T07:11:29.970Z,17.20
2022-08-29T07:14:00.045Z,17.20
2022-08-29T07:16:28.806Z,17.20
2022-08-29T07:18:56.238Z,17.20
2022-08-29T07:21:26.786Z,17.30
2022-08-29T07:23:55.498Z,17.30
2022-08-29T07:26:30.028Z,17.30
2022-08-29T07:29:01.958Z,17.30
2022-08-29T07:31:31.537Z,17.40
2022-08-29T07:34:02.099Z,17.40
2022-08-29T07:36:31.838Z,17.50
2022-08-29T07:38:59.425Z,17.50
2022-08-29T07:41:28.606Z,17.50
2022-08-29T07:43:57.175Z,17.60
2022-08-29T07:46:25.648Z,17.70
2022-08-29T07:48:53.349Z,17.70
2022-08-29T07:51:23.121Z,17.80
2022-08-29T07:53:51.608Z,17.80
2022-08-29T07:56:25.713Z,17.90
2022-08-29T07:58:54.332Z,17.90
2022-08-29T08:01:22.958Z,17.90
2022-08-29T08:03:51.661Z,17.90
2022-08-29T08:06:21.313Z,17.90
2022-08-29T08:08:49.585Z,18.00
2022-08-29T08:11:18.218Z,18.00
2022-08-29T08:13:45.798Z,18.00
2022-08-29T08:16:16.426Z,18.00
2022-08-29T08:18:44.977Z,18.10
2022-08-29T08:21:12.902Z,18.10
2022-08-29T08:23:41.607Z,18.10
2022-08-29T08:26:10.045Z,18.10
2022-08-29T08:28:38.076Z,18.10
2022-08-29T08:31:08.107Z,18.20
2022-08-29T08:33:38.772Z,18.20
2022-08-29T08:36:28.717Z,18.40
2022-08-29T08:38:58.183Z,18.50
2022-08-29T08:41:31.297Z,18.60
2022-08-29T08:44:07.151Z,18.70
2022-08-29T08:46:45.115Z,18.70
2022-08-29T08:49:17.967Z,18.70
2022-08-29T08:51:52.169Z,18.70
2022-08-29T08:54:27.022Z,18.70
2022-08-29T08:57:03.044Z,18.80
2022-08-29T08:59:40.108Z,18.80
2022-08-29T09:02:19.539Z,18.70
2022-08-29T09:05:05.838Z,18.80
2022-08-29T09:08:14.489Z,18.80
2022-08-29T09:11:03.185Z,18.70
2022-08-29T09:13:46.681Z,18.70
2022-08-29T09:16:26.426Z,18.70
2022-08-29T09:18:58.635Z,18.80
2022-08-29T09:21:42.640Z,19.00
2022-08-29T09:24:28.864Z,19.10
2022-08-29T09:26:56.446Z,19.20
2022-08-29T09:29:27.795Z,19.40
2022-08-29T09:32:08.019Z,19.40
2022-08-29T09:35:07.568Z,19.50
2022-08-29T09:37:35.014Z,19.60
2022-08-29T09:40:12.575Z,19.50
2022-08-29T09:42:51.936Z,19.60
2022-08-29T09:45:25.341Z,19.60
2022-08-29T09:48:14.522Z,19.50
2022-08-29T09:50:42.746Z,19.50
2022-08-29T09:53:25.203Z,19.60
2022-08-29T09:55:53.621Z,19.50
2022-08-29T09:58:21.047Z,19.60
2022-08-29T10:01:02.068Z,19.70
2022-08-29T10:03:39.667Z,20.00
2022-08-29T10:06:14.124Z,20.10
2022-08-29T10:08:43.395Z,20.20
2022-08-29T10:11:16.860Z,20.20
2022-08-29T10:14:12.972Z,20.20
2022-08-29T10:17:20.382Z,20.20
2022-08-29T10:19:48.441Z,20.30
2022-08-29T10:22:35.901Z,20.40
2022-08-29T10:25:08.774Z,20.30
2022-08-29T10:27:48.703Z,20.20
2022-08-29T10:30:22.839Z,20.20
2022-08-29T10:33:07.640Z,20.20
2022-08-29T10:35:54.425Z,20.20
2022-08-29T10:38:44.369Z,20.30
2022-08-29T10:41:32.260Z,20.50
2022-08-29T10:44:32.813Z,20.60
2022-08-29T10:47:26.322Z,20.70
2022-08-29T10:50:44.254Z,20.80
2022-08-29T10:53:15.232Z,20.80
2022-08-29T10:56:03.190Z,20.80
2022-08-29T10:59:16.248Z,20.80
2022-08-29T11:01:57.326Z,20.80
2022-08-29T11:04:32.030Z,20.80
2022-08-29T11:07:17.749Z,20.80
2022-08-29T11:09:57.393Z,20.90
2022-08-29T11:12:45.893Z,20.80
2022-08-29T11:15:16.103Z,20.70
2022-08-29T11:17:46.598Z,20.80
2022-08-29T11:20:24.257Z,20.80
2022-08-29T11:23:32.600Z,20.70
2022-08-29T11:26:06.140Z,20.50
2022-08-29T11:28:33.571Z,20.50
2022-08-29T11:31:19.584Z,20.50
2022-08-29T11:33:53.128Z,20.50
2022-08-29T11:36:45.912Z,20.60
2022-08-29T11:39:33.278Z,20.60
2022-08-29T11:42:06.267Z,20.80
2022-08-29T11:44:45.848Z,20.90
2022-08-29T11:47:40.975Z,21.00
2022-08-29T11:50:20.362Z,21.30
2022-08-29T11:52:55.032Z,21.20
2022-08-29T11:55:29.052Z,21.20
2022-08-29T11:58:05.679Z,21.00
2022-08-29T12:00:44.704Z,21.10
2022-08-29T12:03:37.900Z,21.30
2022-08-29T12:06:24.211Z,21.40
2022-08-29T12:09:14.521Z,21.60
2022-08-29T12:12:13.133Z,21.90
2022-08-29T12:14:44.371Z,21.90
2022-08-29T12:17:24.697Z,21.90
2022-08-29T12:20:13.639Z,21.80
2022-08-29T12:23:01.847Z,21.80
2022-08-29T12:25:45.115Z,21.80
2022-08-29T12:28:18.740Z,21.80
2022-08-29T12:31:01.109Z,21.70
2022-08-29T12:33:54.207Z,21.50
2022-08-29T12:36:51.936Z,21.50
2022-08-29T12:39:39.046Z,21.60
2022-08-29T12:42:14.389Z,21.50
2022-08-29T12:44:47.793Z,21.30
2022-08-29T12:47:33.707Z,21.20
2022-08-29T12:50:20.436Z,21.10
2022-08-29T12:53:06.210Z,21.00
2022-08-29T12:55:43.498Z,20.90
2022-08-29T12:58:14.093Z,20.80
2022-08-29T13:00:51.528Z,20.90
2022-08-29T13:03:21.187Z,21.00
2022-08-29T13:05:49.001Z,20.90
2022-08-29T13:08:30.595Z,20.90
2022-08-29T13:11:12.839Z,20.90
2022-08-29T13:13:41.470Z,20.90
2022-08-29T13:16:22.394Z,20.90
2022-08-29T13:19:07.633Z,20.80
2022-08-29T13:21:37.403Z,20.70
2022-08-29T13:24:11.561Z,20.70
2022-08-29T13:27:01.157Z,20.70
2022-08-29T13:29:40.907Z,20.60
2022-08-29T13:32:18.843Z,20.70
2022-08-29T13:35:03.941Z,20.60
2022-08-29T13:37:39.310Z,20.50
2022-08-29T13:40:28.647Z,20.60
2022-08-29T13:42:56.871Z,20.50
2022-08-29T13:45:25.310Z,20.40
2022-08-29T13:48:02.076Z,20.50
2022-08-29T13:50:30.150Z,20.40
2022-08-29T13:52:58.395Z,20.40
2022-08-29T13:55:29.303Z,20.40
2022-08-29T13:57:56.762Z,20.50
2022-08-29T14:00:34.826Z,20.60
2022-08-29T14:03:06.429Z,20.60
2022-08-29T14:05:35.299Z,20.70
2022-08-29T14:08:03.744Z,20.80
2022-08-29T14:10:32.982Z,20.80
2022-08-29T14:13:00.368Z,20.80
2022-08-29T14:15:27.952Z,20.70
2022-08-29T14:17:55.588Z,20.70
2022-08-29T14:20:23.251Z,20.80
2022-08-29T14:22:51.399Z,20.80
2022-08-29T14:25:20.146Z,20.80
2022-08-29T14:27:48.512Z,20.80
2022-08-29T14:30:20.141Z,20.90
2022-08-29T14:32:49.643Z,20.80
2022-08-29T14:35:26.755Z,20.80
2022-08-29T14:38:00.462Z,20.80
2022-08-29T14:40:29.320Z,20.80
2022-08-29T14:42:58.101Z,20.80
2022-08-29T14:45:26.148Z,20.80
2022-08-29T14:47:53.697Z,20.80
2022-08-29T14:50:21.719Z,20.70
2022-08-29T14:52:49.309Z,20.70
2022-08-29T14:55:16.864Z,20.70
2022-08-29T14:57:44.282Z,20.60
2022-08-29T15:00:16.076Z,20.60
2022-08-29T15:02:43.546Z,20.50
2022-08-29T15:05:12.055Z,20.50
2022-08-29T15:07:40.781Z,20.60
2022-08-29T15:10:10.720Z,20.70
2022-08-29T15:12:38.459Z,21.10
2022-08-29T15:15:06.515Z,21.20
2022-08-29T15:17:34.324Z,21.30
2022-08-29T15:20:34.874Z,21.30
2022-08-29T15:22:49.488Z,21.20
2022-08-29T15:25:18.163Z,21.10
2022-08-29T15:27:46.676Z,21.00
2022-08-29T15:30:20.426Z,20.90
2022-08-29T15:32:49.122Z,20.90
2022-08-29T15:35:16.876Z,20.90
2022-08-29T15:37:44.539Z,21.00
2022-08-29T15:40:13.780Z,20.90
2022-08-29T15:42:41.450Z,21.00
2022-08-29T15:45:10.332Z,21.10
2022-08-29T15:47:39.782Z,21.10
2022-08-29T15:50:08.424Z,21.10
2022-08-29T15:52:37.077Z,21.10
2022-08-29T15:55:05.893Z,21.00
2022-08-29T15:57:33.603Z,21.00
2022-08-29T16:00:11.886Z,21.00
2022-08-29T16:02:44.347Z,20.90
2022-08-29T16:05:11.950Z,20.90
2022-08-29T16:07:41.263Z,20.90
2022-08-29T16:10:11.047Z,20.90
2022-08-29T16:12:39.883Z,21.00
2022-08-29T16:15:09.831Z,21.00
2022-08-29T16:17:38.083Z,21.00
2022-08-29T16:20:11.364Z,20.90
2022-08-29T16:22:40.556Z,20.80
2022-08-29T16:25:10.059Z,20.70
2022-08-29T16:27:37.595Z,20.70
2022-08-29T16:30:05.798Z,20.70
2022-08-29T16:32:33.207Z,20.60
2022-08-29T16:35:00.713Z,20.60
2022-08-29T16:37:29.036Z,20.50
2022-08-29T16:39:56.538Z,20.60
2022-08-29T16:42:28.661Z,20.60
2022-08-29T16:44:58.828Z,20.60
2022-08-29T16:47:27.894Z,20.60
2022-08-29T16:49:55.316Z,20.50
2022-08-29T16:52:22.764Z,20.50
2022-08-29T16:54:52.063Z,20.50
2022-08-29T16:57:21.502Z,20.50
2022-08-29T16:59:48.959Z,20.50
2022-08-29T17:02:16.752Z,20.40
2022-08-29T17:04:46.211Z,20.40
2022-08-29T17:07:13.665Z,20.40
2022-08-29T17:09:40.956Z,20.40
2022-08-29T17:12:09.112Z,20.30
2022-08-29T17:14:37.312Z,20.30
2022-08-29T17:17:05.661Z,20.30
2022-08-29T17:19:34.107Z,20.10
2022-08-29T17:22:01.573Z,20.00
2022-08-29T17:24:29.276Z,20.00
2022-08-29T17:26:57.629Z,20.00
2022-08-29T17:29:25.113Z,20.00
2022-08-29T17:31:52.601Z,20.10
2022-08-29T17:34:20.045Z,20.10
2022-08-29T17:36:49.677Z,20.20
2022-08-29T17:39:17.248Z,20.20
2022-08-29T17:41:50.532Z,20.20
2022-08-29T17:44:18.676Z,20.10
2022-08-29T17:46:46.317Z,20.10
2022-08-29T17:49:13.794Z,20.00
2022-08-29T17:51:42.101Z,20.00
2022-08-29T17:54:14.928Z,20.00
2022-08-29T17:56:46.393Z,20.00
2022-08-29T17:59:16.229Z,19.90
2022-08-29T18:01:44.233Z,19.90
2022-08-29T18:04:12.392Z,19.90
2022-08-29T18:06:40.411Z,19.80
2022-08-29T18:09:08.353Z,19.80
2022-08-29T18:11:39.474Z,19.70
2022-08-29T18:14:07.264Z,19.70
2022-08-29T18:16:35.134Z,19.70
2022-08-29T18:19:03.281Z,19.70
2022-08-29T18:21:31.647Z,19.70
2022-08-29T18:24:00.020Z,19.60
2022-08-29T18:26:27.602Z,19.60
2022-08-29T18:28:55.837Z,19.60
2022-08-29T18:31:23.755Z,19.50
2022-08-29T18:34:06.701Z,19.50
2022-08-29T18:36:36.329Z,19.50
2022-08-29T18:39:05.878Z,19.50
2022-08-29T18:41:33.911Z,19.40
2022-08-29T18:44:01.448Z,19.40
2022-08-29T18:46:30.148Z,19.30
2022-08-29T18:48:58.156Z,19.30
2022-08-29T18:51:26.159Z,19.30
2022-08-29T18:53:53.963Z,19.20
2022-08-29T18:56:21.381Z,19.10
2022-08-29T18:58:49.123Z,19.10
2022-08-29T19:01:28.585Z,19.10
2022-08-29T19:03:58.007Z,19.10
2022-08-29T19:06:26.484Z,19.10
2022-08-29T19:08:54.613Z,19.00
2022-08-29T19:11:22.409Z,19.00
2022-08-29T19:13:52.378Z,18.90
2022-08-29T19:16:21.141Z,18.90
2022-08-29T19:18:48.759Z,18.90
2022-08-29T19:21:16.392Z,18.80
2022-08-29T19:23:51.360Z,18.80
2022-08-29T19:26:34.421Z,18.70
2022-08-29T19:29:07.123Z,18.70
2022-08-29T19:31:34.613Z,18.70
2022-08-29T19:34:02.078Z,18.60
2022-08-29T19:36:29.439Z,18.60
2022-08-29T19:38:56.835Z,18.60
2022-08-29T19:41:25.036Z,18.60
2022-08-29T19:43:53.374Z,18.60
2022-08-29T19:46:23.089Z,18.50
2022-08-29T19:48:52.466Z,18.50
2022-08-29T19:51:25.389Z,18.50
2022-08-29T19:53:57.413Z,18.50
2022-08-29T19:56:29.162Z,18.50
2022-08-29T19:58:57.177Z,18.50
2022-08-29T20:01:25.577Z,18.40
2022-08-29T20:03:53.379Z,18.40
2022-08-29T20:06:21.217Z,18.40
2022-08-29T20:08:48.761Z,18.50
2022-08-29T20:11:23.110Z,18.50
2022-08-29T20:13:52.441Z,18.50
2022-08-29T20:16:24.166Z,18.50
2022-08-29T20:18:52.810Z,18.50
2022-08-29T20:21:23.589Z,18.50
2022-08-29T20:23:57.246Z,18.50
2022-08-29T20:26:28.663Z,18.50
2022-08-29T20:28:58.378Z,18.40
2022-08-29T20:31:26.948Z,18.40
2022-08-29T20:33:55.021Z,18.30
2022-08-29T20:36:41.927Z,18.30
2022-08-29T20:39:11.731Z,18.30
2022-08-29T20:41:39.368Z,18.30
2022-08-29T20:44:07.745Z,18.20
2022-08-29T20:46:40.539Z,18.20
2022-08-29T20:49:13.211Z,18.20
2022-08-29T20:51:44.064Z,18.10
2022-08-29T20:54:13.043Z,18.00
2022-08-29T20:56:41.092Z,18.00
2022-08-29T20:59:08.499Z,18.00
2022-08-29T21:01:36.563Z,18.00
2022-08-29T21:04:24.335Z,17.90
2022-08-29T21:07:01.542Z,17.90
2022-08-29T21:09:30.099Z,17.90
2022-08-29T21:11:58.196Z,17.90
2022-08-29T21:14:27.293Z,17.80
2022-08-29T21:16:56.821Z,17.90
2022-08-29T21:19:29.692Z,17.80
2022-08-29T21:21:59.228Z,17.80
2022-08-29T21:24:27.959Z,17.70
2022-08-29T21:26:55.839Z,17.70
2022-08-29T21:29:23.704Z,17.70
2022-08-29T21:31:52.342Z,17.70
2022-08-29T21:34:20.834Z,17.70
2022-08-29T21:36:48.544Z,17.70
2022-08-29T21:39:28.184Z,17.70
2022-08-29T21:41:57.599Z,17.70
2022-08-29T21:44:25.228Z,17.70
2022-08-29T21:46:53.986Z,17.70
2022-08-29T21:49:21.963Z,17.70
2022-08-29T21:51:49.862Z,17.60
2022-08-29T21:54:18.089Z,17.60
2022-08-29T21:56:46.603Z,17.60
2022-08-29T21:59:16.879Z,17.60
2022-08-29T22:01:45.746Z,17.60
2022-08-29T22:04:19.366Z,17.50
2022-08-29T22:06:57.382Z,17.50
2022-08-29T22:09:25.743Z,17.40
2022-08-29T22:11:53.303Z,17.40
2022-08-29T22:14:20.748Z,17.40
2022-08-29T22:16:48.155Z,17.40
2022-08-29T22:19:17.389Z,17.40
2022-08-29T22:21:51.936Z,17.30
2022-08-29T22:24:19.954Z,17.30
2022-08-29T22:26:48.372Z,17.30
2022-08-29T22:29:16.346Z,17.40
2022-08-29T22:31:45.026Z,17.30
2022-08-29T22:34:15.274Z,17.30
2022-08-29T22:36:43.499Z,17.20
2022-08-29T22:39:10.915Z,17.20
2022-08-29T22:41:38.548Z,17.20
2022-08-29T22:44:52.718Z,17.20
2022-08-29T22:46:54.801Z,17.10
2022-08-29T22:49:22.383Z,17.10
2022-08-29T22:51:52.583Z,17.00
2022-08-29T22:54:35.140Z,17.00
2022-08-29T22:57:23.071Z,17.00
2022-08-29T22:59:51.413Z,17.00
2022-08-29T23:02:20.963Z,16.90
2022-08-29T23:04:50.457Z,16.90
2022-08-29T23:07:20.049Z,16.80
2022-08-29T23:09:50.718Z,16.80
2022-08-29T23:12:18.574Z,16.70
2022-08-29T23:14:48.917Z,16.60
2022-08-29T23:17:17.409Z,16.60
2022-08-29T23:19:49.953Z,16.60
2022-08-29T23:22:17.990Z,16.60
2022-08-29T23:24:58.091Z,16.60
2022-08-29T23:27:31.027Z,16.60
2022-08-29T23:29:59.703Z,16.60
2022-08-29T23:32:27.803Z,16.60
2022-08-29T23:34:55.287Z,16.50
2022-08-29T23:37:23.162Z,16.50
2022-08-29T23:39:50.933Z,16.50
2022-08-29T23:42:18.744Z,16.40
2022-08-29T23:44:48.431Z,16.40
2022-08-29T23:47:16.835Z,16.40
2022-08-29T23:49:44.571Z,16.40
2022-08-29T23:52:13.468Z,16.40
2022-08-29T23:54:41.079Z,16.30
2022-08-29T23:57:08.584Z,16.20
2022-08-29T23:59:54.374Z,16.20
